Time;durP1;ratioP1;P1;durP2;ratioP2;P2;SDS_P1;SDS_P2;PMS_P1;PMS_P2;Temp;Humidity;BMP_temperature;BMP_pressure;BME280_temperature;BME280_humidity;BME280_pressure;Samples;Min_cycle;Max_cycle;Signal;HPM_P1;HPM_P2
2024/01/24 00:01:07;;;;;;;31.88;7.60;;;11.20;99.90;;;;;;5034527;28;20043;-70
2024/01/24 00:03:33;;;;;;;32.15;7.70;;;11.20;99.90;;;;;;5035741;28;20385;-72
2024/01/24 00:05:58;;;;;;;33.35;8.13;;;11.20;99.90;;;;;;5035473;28;20410;-71
2024/01/24 00:08:24;;;;;;;30.60;7.30;;;11.20;99.90;;;;;;5035371;28;20030;-70
2024/01/24 00:10:49;;;;;;;28.88;7.53;;;11.30;99.90;;;;;;5035027;28;20040;-72
2024/01/24 00:13:15;;;;;;;36.97;7.85;;;11.30;99.90;;;;;;5035259;28;20388;-72
2024/01/24 00:15:40;;;;;;;37.15;8.45;;;11.20;99.90;;;;;;5035436;28;20456;-69
2024/01/24 00:18:06;;;;;;;35.85;8.55;;;11.30;99.90;;;;;;5035377;28;20033;-70
2024/01/24 00:20:32;;;;;;;34.00;8.75;;;11.30;99.90;;;;;;5034940;28;20068;-70
2024/01/24 00:22:57;;;;;;;36.53;14.38;;;11.30;99.90;;;;;;5035150;28;20044;-70
2024/01/24 00:25:24;;;;;;;32.88;7.88;;;11.30;99.90;;;;;;5035100;28;20029;-73
2024/01/24 00:27:49;;;;;;;35.92;9.00;;;11.30;99.90;;;;;;5034915;28;20042;-70
2024/01/24 00:30:15;;;;;;;29.90;7.80;;;11.30;99.90;;;;;;5035158;28;20030;-71
2024/01/24 00:32:40;;;;;;;26.42;7.22;;;11.30;99.90;;;;;;5035160;28;20068;-68
2024/01/24 00:35:06;;;;;;;28.58;7.65;;;11.30;99.90;;;;;;5034701;28;20478;-71
2024/01/24 00:37:32;;;;;;;36.58;8.57;;;11.30;99.90;;;;;;5035131;28;20539;-71
2024/01/24 00:39:57;;;;;;;30.98;7.68;;;11.30;99.90;;;;;;5034414;28;20033;-71
2024/01/24 00:42:23;;;;;;;36.50;8.68;;;11.30;99.90;;;;;;5033586;28;20053;-70
2024/01/24 00:44:50;;;;;;;31.15;7.40;;;11.30;99.90;;;;;;5034684;28;20128;-69
2024/01/24 00:47:18;;;;;;;35.63;8.35;;;11.30;99.90;;;;;;5034730;28;20132;-72
2024/01/24 00:49:44;;;;;;;34.35;8.20;;;11.30;99.90;;;;;;5034320;28;20473;-72
2024/01/24 00:52:09;;;;;;;28.83;7.65;;;11.30;99.90;;;;;;5034760;28;20109;-69
2024/01/24 00:54:35;;;;;;;29.73;7.85;;;11.30;99.90;;;;;;5034397;28;20095;-69
2024/01/24 00:57:00;;;;;;;29.00;7.78;;;11.30;99.90;;;;;;5034665;28;20083;-69
2024/01/24 00:59:26;;;;;;;25.35;8.15;;;11.30;99.90;;;;;;5034579;28;20072;-70
2024/01/24 01:01:51;;;;;;;33.25;7.38;;;11.30;99.90;;;;;;5034399;28;20090;-72
2024/01/24 01:04:17;;;;;;;25.88;6.63;;;11.30;99.90;;;;;;5033140;28;20401;-70
2024/01/24 01:06:43;;;;;;;32.67;7.00;;;11.40;99.90;;;;;;5033765;28;20462;-71
2024/01/24 01:09:08;;;;;;;35.15;7.13;;;11.30;99.90;;;;;;5034186;28;20021;-70
2024/01/24 01:11:34;;;;;;;36.58;9.63;;;11.30;99.90;;;;;;5034419;28;20032;-68
2024/01/24 01:13:59;;;;;;;29.50;7.65;;;11.40;99.90;;;;;;5034648;28;20026;-69
2024/01/24 01:16:25;;;;;;;27.58;7.00;;;11.40;99.90;;;;;;5034223;28;20080;-72
2024/01/24 01:18:50;;;;;;;32.28;8.48;;;11.30;99.90;;;;;;5034280;28;20034;-71
2024/01/24 01:21:16;;;;;;;28.38;7.07;;;11.30;99.90;;;;;;5033940;28;20474;-69
2024/01/24 01:23:41;;;;;;;33.78;7.93;;;11.30;99.90;;;;;;5033584;28;20033;-69
2024/01/24 01:26:07;;;;;;;33.75;8.30;;;11.30;99.90;;;;;;5034167;28;20582;-70
2024/01/24 01:28:32;;;;;;;31.42;8.23;;;11.30;99.90;;;;;;5034021;28;20077;-69
2024/01/24 01:30:58;;;;;;;29.02;9.05;;;11.30;99.90;;;;;;5033949;28;20026;-70
2024/01/24 01:33:24;;;;;;;35.95;8.77;;;11.40;99.90;;;;;;5033995;28;20105;-72
2024/01/24 01:35:49;;;;;;;36.95;9.15;;;11.40;99.90;;;;;;5034066;28;20049;-72
2024/01/24 01:38:15;;;;;;;37.75;9.52;;;11.40;99.90;;;;;;5033633;28;20030;-69
2024/01/24 01:40:40;;;;;;;34.25;8.55;;;11.40;99.90;;;;;;5032500;28;20572;-70
2024/01/24 01:43:16;;;;;;;38.47;9.10;;;11.40;99.90;;;;;;5032442;28;20030;-69
2024/01/24 01:45:42;;;;;;;38.70;8.55;;;11.30;99.90;;;;;;5033719;28;20033;-72
2024/01/24 01:48:09;;;;;;;31.80;9.13;;;11.40;99.90;;;;;;5033483;28;20037;-69
2024/01/24 01:50:35;;;;;;;41.80;10.23;;;11.40;99.90;;;;;;5033728;28;20021;-72
2024/01/24 01:53:03;;;;;;;30.27;8.40;;;11.40;99.90;;;;;;5033178;28;20378;-70
2024/01/24 01:55:30;;;;;;;33.38;8.85;;;11.40;99.90;;;;;;5033573;28;20462;-71
2024/01/24 01:57:58;;;;;;;33.83;8.90;;;11.40;99.90;;;;;;5033278;28;20044;-70
2024/01/24 02:00:25;;;;;;;36.75;9.73;;;11.40;99.90;;;;;;5032788;28;20034;-70
2024/01/24 02:02:51;;;;;;;41.05;9.73;;;11.40;99.90;;;;;;5032064;28;20370;-72
2024/01/24 02:05:17;;;;;;;33.45;9.35;;;11.40;99.90;;;;;;5033008;28;20031;-69
2024/01/24 02:07:44;;;;;;;33.00;8.55;;;11.40;99.90;;;;;;5032975;28;20021;-71
2024/01/24 02:10:14;;;;;;;32.42;8.20;;;11.40;99.90;;;;;;5033278;28;20080;-70
2024/01/24 02:12:39;;;;;;;28.92;8.13;;;11.40;99.90;;;;;;5033280;28;20469;-72
2024/01/24 02:15:08;;;;;;;34.17;8.68;;;11.40;99.90;;;;;;5033160;28;20028;-69
2024/01/24 02:17:33;;;;;;;40.45;9.75;;;11.40;99.90;;;;;;5033201;28;20033;-72
2024/01/24 02:19:59;;;;;;;35.80;9.65;;;11.40;99.90;;;;;;5032550;28;20049;-70
2024/01/24 02:22:25;;;;;;;38.72;9.23;;;11.40;99.90;;;;;;5032819;28;20037;-70
2024/01/24 02:24:50;;;;;;;33.75;9.57;;;11.40;99.90;;;;;;5033056;28;20104;-69
2024/01/24 02:27:16;;;;;;;33.53;9.90;;;11.40;99.90;;;;;;5032970;28;20053;-70
2024/01/24 02:29:41;;;;;;;40.50;11.00;;;11.30;99.90;;;;;;5032894;28;20084;-72
2024/01/24 02:32:07;;;;;;;36.47;8.85;;;11.30;99.90;;;;;;5031448;28;20060;-70
2024/01/24 02:34:32;;;;;;;40.40;10.95;;;11.30;99.90;;;;;;5032765;28;20060;-72
2024/01/24 02:36:58;;;;;;;42.28;9.77;;;11.30;99.90;;;;;;5032641;28;20527;-70
2024/01/24 02:39:23;;;;;;;43.75;9.95;;;11.30;99.90;;;;;;5032656;28;20477;-71
2024/01/24 02:41:49;;;;;;;37.60;9.65;;;11.30;99.90;;;;;;5032781;28;20434;-68
2024/01/24 02:44:15;;;;;;;38.97;10.18;;;11.20;99.90;;;;;;5032735;28;20025;-70
2024/01/24 02:46:40;;;;;;;46.00;10.38;;;11.10;99.90;;;;;;5032807;28;20105;-71
2024/01/24 02:49:06;;;;;;;36.72;9.40;;;11.00;99.90;;;;;;5032489;28;20454;-71
2024/01/24 02:51:31;;;;;;;39.55;9.32;;;11.10;99.90;;;;;;5032654;28;20370;-70
2024/01/24 02:53:57;;;;;;;35.15;8.93;;;11.00;99.90;;;;;;5032528;28;20385;-72
2024/01/24 02:56:22;;;;;;;41.38;9.73;;;10.90;99.90;;;;;;5032324;28;20037;-72
2024/01/24 02:58:48;;;;;;;44.25;10.73;;;10.90;99.90;;;;;;5032565;28;20087;-70
2024/01/24 03:01:15;;;;;;;38.58;9.70;;;10.80;99.90;;;;;;5032479;28;20049;-71
2024/01/24 03:03:43;;;;;;;39.72;10.10;;;10.80;99.90;;;;;;5032020;28;20064;-70
2024/01/24 03:06:08;;;;;;;39.45;9.48;;;10.70;99.90;;;;;;5031144;28;20084;-72
2024/01/24 03:08:57;;;;;;;44.40;10.15;;;10.70;99.90;;;;;;5032498;28;20025;-70
2024/01/24 03:11:25;;;;;;;39.95;10.85;;;10.70;99.90;;;;;;5032420;28;20504;-70
2024/01/24 03:13:51;;;;;;;35.88;9.68;;;10.60;99.90;;;;;;5035341;28;20469;-69
2024/01/24 03:16:17;;;;;;;43.70;10.30;;;10.60;99.90;;;;;;5036341;28;20022;-69
2024/01/24 03:18:43;;;;;;;39.40;10.95;;;10.60;99.90;;;;;;5036377;28;20116;-71
2024/01/24 03:21:13;;;;;;;44.28;11.13;;;10.50;99.90;;;;;;5036423;28;20128;-70
2024/01/24 03:23:39;;;;;;;49.50;10.23;;;10.50;99.90;;;;;;5036279;28;20132;-71
2024/01/24 03:26:07;;;;;;;41.30;9.82;;;10.50;99.90;;;;;;5036303;28;20514;-70
2024/01/24 03:28:36;;;;;;;39.00;9.18;;;10.50;99.90;;;;;;5036115;28;20025;-68
2024/01/24 03:31:02;;;;;;;40.67;10.52;;;10.50;99.90;;;;;;5036272;28;20081;-71
2024/01/24 03:33:28;;;;;;;44.58;12.07;;;10.40;99.90;;;;;;5036222;28;20083;-71
2024/01/24 03:35:54;;;;;;;36.08;9.73;;;10.40;99.90;;;;;;5036077;28;20053;-71
2024/01/24 03:38:20;;;;;;;39.80;10.50;;;10.40;99.90;;;;;;5036115;28;20037;-69
2024/01/24 03:40:46;;;;;;;40.65;10.00;;;10.30;99.90;;;;;;5036085;28;20125;-70
2024/01/24 03:43:12;;;;;;;41.55;9.95;;;10.30;99.90;;;;;;5035913;28;20060;-69
2024/01/24 03:45:38;;;;;;;39.83;11.15;;;10.30;99.90;;;;;;5035829;28;20026;-71
2024/01/24 03:48:05;;;;;;;51.13;9.85;;;10.20;99.90;;;;;;5034745;28;20116;-68
2024/01/24 03:50:31;;;;;;;40.55;9.38;;;10.20;99.90;;;;;;5035609;28;20374;-70
2024/01/24 03:52:56;;;;;;;36.65;8.35;;;10.20;99.90;;;;;;5035736;28;20083;-70
2024/01/24 03:55:22;;;;;;;47.03;9.30;;;10.30;99.90;;;;;;5035735;28;20021;-71
2024/01/24 03:57:47;;;;;;;38.85;9.55;;;10.20;99.90;;;;;;5035404;28;20037;-69
2024/01/24 04:00:15;;;;;;;41.83;10.93;;;10.30;99.90;;;;;;5035247;28;20525;-71
2024/01/24 04:02:41;;;;;;;41.95;9.63;;;10.20;99.90;;;;;;5035710;28;20029;-71
2024/01/24 04:05:07;;;;;;;34.67;10.15;;;10.20;99.90;;;;;;5035646;28;20026;-72
2024/01/24 04:07:33;;;;;;;40.90;11.23;;;10.20;99.90;;;;;;5035697;28;20465;-71
2024/01/24 04:09:59;;;;;;;37.65;10.20;;;10.20;99.90;;;;;;5035559;28;20060;-72
2024/01/24 04:12:24;;;;;;;40.72;8.82;;;10.20;99.90;;;;;;5035376;28;20056;-71
2024/01/24 04:14:50;;;;;;;37.65;9.27;;;10.10;99.90;;;;;;5035540;28;20082;-72
2024/01/24 04:17:16;;;;;;;35.53;9.60;;;10.10;99.90;;;;;;5035415;28;20025;-70
2024/01/24 04:19:41;;;;;;;33.85;8.73;;;10.20;99.90;;;;;;5034012;28;20029;-70
2024/01/24 04:22:08;;;;;;;33.90;8.65;;;10.10;99.90;;;;;;5035071;28;20047;-69
2024/01/24 04:24:34;;;;;;;34.30;9.48;;;10.20;99.90;;;;;;5034606;28;20032;-68
2024/01/24 04:27:00;;;;;;;46.17;9.50;;;10.20;99.90;;;;;;5034861;28;20034;-69
2024/01/24 04:29:25;;;;;;;31.02;8.23;;;10.10;99.90;;;;;;5035182;28;20057;-71
2024/01/24 04:31:51;;;;;;;44.13;10.02;;;10.20;99.90;;;;;;5034917;28;20033;-68
2024/01/24 04:34:17;;;;;;;36.10;9.52;;;10.20;99.90;;;;;;5035060;28;20442;-70
2024/01/24 04:36:46;;;;;;;34.97;9.68;;;10.20;99.90;;;;;;5035005;28;20018;-70
2024/01/24 04:39:12;;;;;;;42.70;9.77;;;10.20;99.90;;;;;;5034996;28;20029;-70
2024/01/24 04:41:37;;;;;;;41.58;10.15;;;10.20;99.90;;;;;;5034722;28;20029;-71
2024/01/24 04:44:04;;;;;;;43.33;9.57;;;10.20;99.90;;;;;;5034656;28;20417;-68
2024/01/24 04:46:29;;;;;;;41.97;10.00;;;10.30;99.90;;;;;;5034835;28;20021;-68
2024/01/24 04:48:55;;;;;;;46.70;9.95;;;10.20;99.90;;;;;;5034708;28;20032;-67
2024/01/24 04:51:24;;;;;;;45.97;9.80;;;10.20;99.90;;;;;;5034615;28;20355;-70
2024/01/24 04:53:50;;;;;;;46.58;10.00;;;10.20;99.90;;;;;;5034505;28;20347;-69
2024/01/24 04:56:16;;;;;;;50.75;10.07;;;10.20;99.90;;;;;;5034412;28;20022;-70
2024/01/24 04:58:42;;;;;;;45.78;11.13;;;10.20;99.90;;;;;;5034695;28;20037;-69
2024/01/24 05:01:07;;;;;;;38.25;9.05;;;10.10;99.90;;;;;;5034312;28;20048;-69
2024/01/24 05:03:33;;;;;;;37.17;9.57;;;10.10;99.90;;;;;;5035012;28;20025;-67
2024/01/24 05:05:58;;;;;;;41.35;8.93;;;10.00;99.90;;;;;;5034762;28;20034;-71
2024/01/24 05:08:24;;;;;;;44.03;9.80;;;10.00;99.90;;;;;;5034780;28;20018;-68
2024/01/24 05:10:50;;;;;;;45.28;9.68;;;10.00;99.90;;;;;;5034239;28;20385;-67
2024/01/24 05:13:16;;;;;;;38.17;8.95;;;10.00;99.90;;;;;;5034377;28;20035;-71
2024/01/24 05:15:41;;;;;;;48.95;9.57;;;10.00;99.90;;;;;;5034357;28;20044;-71
2024/01/24 05:18:07;;;;;;;45.05;9.82;;;10.00;99.90;;;;;;5034248;28;20029;-70
2024/01/24 05:20:32;;;;;;;38.22;9.25;;;10.00;99.90;;;;;;5034230;28;20095;-69
2024/01/24 05:22:58;;;;;;;54.58;10.40;;;10.00;99.90;;;;;;5034572;28;20026;-69
2024/01/24 05:25:24;;;;;;;56.72;10.38;;;10.00;99.90;;;;;;5034059;28;20022;-70
2024/01/24 05:27:50;;;;;;;49.85;10.55;;;9.90;99.90;;;;;;5034520;28;20030;-69
2024/01/24 05:30:15;;;;;;;49.83;10.98;;;9.90;99.90;;;;;;5034277;28;20029;-70
2024/01/24 05:32:41;;;;;;;50.92;10.55;;;9.90;99.90;;;;;;5032942;28;20072;-69
2024/01/24 05:35:06;;;;;;;52.22;11.35;;;9.90;99.90;;;;;;5033541;28;20096;-67
2024/01/24 05:37:32;;;;;;;50.33;10.93;;;9.90;99.90;;;;;;5033711;28;20026;-71
2024/01/24 05:39:58;;;;;;;51.08;11.10;;;9.90;99.90;;;;;;5032172;28;20048;-72
2024/01/24 05:42:23;;;;;;;47.75;10.63;;;9.90;99.90;;;;;;5032715;28;20021;-69
2024/01/24 05:44:49;;;;;;;55.63;10.88;;;9.90;99.90;;;;;;5033101;28;20045;-70
2024/01/24 05:47:15;;;;;;;54.22;11.35;;;9.90;99.90;;;;;;5032188;28;20021;-69
2024/01/24 05:49:41;;;;;;;49.95;10.70;;;9.90;99.90;;;;;;5032123;28;20434;-71
2024/01/24 05:52:06;;;;;;;41.65;10.38;;;9.90;99.90;;;;;;5033642;28;20045;-71
2024/01/24 05:54:33;;;;;;;48.33;10.85;;;9.80;99.90;;;;;;5033240;28;20084;-70
2024/01/24 05:56:58;;;;;;;51.78;11.73;;;9.90;99.90;;;;;;5032894;28;20049;-71
2024/01/24 05:59:24;;;;;;;55.90;12.38;;;9.80;99.90;;;;;;5032845;28;20116;-69
2024/01/24 06:01:50;;;;;;;51.17;12.40;;;9.90;99.90;;;;;;5032893;28;20030;-70
2024/01/24 06:04:16;;;;;;;53.38;10.95;;;9.80;99.90;;;;;;5033031;28;20021;-70
2024/01/24 06:06:42;;;;;;;51.92;12.20;;;9.90;99.90;;;;;;5032258;28;20064;-71
2024/01/24 06:09:07;;;;;;;46.75;9.95;;;9.90;99.90;;;;;;5032495;28;20072;-71
2024/01/24 06:11:33;;;;;;;52.72;11.13;;;9.90;99.90;;;;;;5032273;28;20036;-71
2024/01/24 06:13:59;;;;;;;56.33;11.27;;;9.90;99.90;;;;;;5032093;28;20079;-70
2024/01/24 06:16:24;;;;;;;56.92;12.23;;;9.90;99.90;;;;;;5032653;28;20034;-70
2024/01/24 06:18:50;;;;;;;51.92;10.07;;;10.00;99.90;;;;;;5032620;28;20030;-70
2024/01/24 06:21:16;;;;;;;51.60;11.60;;;9.90;99.90;;;;;;5032894;28;20095;-69
2024/01/24 06:23:41;;;;;;;46.33;10.60;;;9.90;99.90;;;;;;5032555;28;20039;-69
2024/01/24 06:26:07;;;;;;;35.40;9.43;;;9.90;99.90;;;;;;5030585;28;20021;-69
2024/01/24 06:28:33;;;;;;;56.45;10.68;;;9.90;99.90;;;;;;5031727;28;20035;-69
2024/01/24 06:30:59;;;;;;;50.85;10.43;;;9.90;99.90;;;;;;5031242;28;20381;-69
2024/01/24 06:33:25;;;;;;;47.72;9.93;;;9.90;99.90;;;;;;5032740;28;20029;-69
2024/01/24 06:35:50;;;;;;;55.85;11.15;;;9.90;99.90;;;;;;5033408;28;20493;-69
2024/01/24 06:38:16;;;;;;;52.85;10.63;;;9.90;99.90;;;;;;5031516;28;20033;-69
2024/01/24 06:40:41;;;;;;;44.50;10.45;;;9.90;99.90;;;;;;5032264;28;20053;-69
2024/01/24 06:43:07;;;;;;;47.97;10.38;;;9.90;99.90;;;;;;5032632;28;20036;-69
2024/01/24 06:45:33;;;;;;;53.60;10.68;;;9.90;99.90;;;;;;5032312;28;20025;-69
2024/01/24 06:47:58;;;;;;;53.33;10.45;;;9.90;99.90;;;;;;5032430;28;20044;-69
2024/01/24 06:50:24;;;;;;;52.95;10.70;;;9.80;99.90;;;;;;5030244;28;20416;-69
2024/01/24 06:52:50;;;;;;;46.15;10.38;;;9.90;99.90;;;;;;5031507;28;20466;-69
2024/01/24 06:55:17;;;;;;;51.55;9.80;;;9.90;99.90;;;;;;5029900;28;20083;-69
2024/01/24 06:57:42;;;;;;;56.20;11.35;;;9.80;99.90;;;;;;5032115;28;20022;-69
2024/01/24 07:00:09;;;;;;;48.15;10.98;;;9.80;99.90;;;;;;5031927;28;20049;-69
2024/01/24 07:02:36;;;;;;;46.63;10.90;;;9.80;99.90;;;;;;5032173;28;20029;-69
2024/01/24 07:05:05;;;;;;;44.88;10.45;;;9.80;99.90;;;;;;5032354;28;20033;-69
2024/01/24 07:07:31;;;;;;;61.72;16.33;;;9.80;99.90;;;;;;5031855;28;20033;-69
2024/01/24 07:09:57;;;;;;;58.17;11.20;;;9.80;99.90;;;;;;5028321;28;20029;-69
2024/01/24 07:12:22;;;;;;;55.83;11.68;;;9.80;99.90;;;;;;5032309;28;20081;-69
2024/01/24 07:14:48;;;;;;;47.28;9.55;;;9.80;99.90;;;;;;5032247;28;20036;-68
2024/01/24 07:17:14;;;;;;;51.42;10.85;;;9.80;99.90;;;;;;5031764;28;20029;-68
2024/01/24 07:19:40;;;;;;;45.45;11.75;;;9.80;99.90;;;;;;5031689;28;20148;-67
2024/01/24 07:22:05;;;;;;;54.70;11.35;;;9.80;99.90;;;;;;5032182;28;20505;-68
2024/01/24 07:24:31;;;;;;;45.20;9.93;;;9.80;99.90;;;;;;5032563;28;20502;-68
2024/01/24 07:26:57;;;;;;;76.30;28.13;;;9.80;99.90;;;;;;5029276;28;20041;-68
2024/01/24 07:29:23;;;;;;;95.55;32.17;;;9.80;99.90;;;;;;5032479;28;20105;-68
2024/01/24 07:31:48;;;;;;;51.78;11.55;;;9.80;99.90;;;;;;5031662;28;20032;-68
2024/01/24 07:34:15;;;;;;;52.33;11.88;;;9.80;99.90;;;;;;5031485;28;20049;-68
2024/01/24 07:36:41;;;;;;;42.35;10.23;;;9.80;99.90;;;;;;5031705;28;20025;-69
2024/01/24 07:39:06;;;;;;;50.85;12.10;;;9.80;99.90;;;;;;5031247;28;20048;-69
2024/01/24 07:41:32;;;;;;;53.78;11.05;;;9.80;99.90;;;;;;5031988;28;20128;-69
2024/01/24 07:43:59;;;;;;;47.33;11.63;;;9.90;99.90;;;;;;5031888;28;20108;-68
2024/01/24 07:46:25;;;;;;;51.15;11.90;;;9.90;99.90;;;;;;5031905;28;20041;-68
2024/01/24 07:48:51;;;;;;;55.33;11.95;;;10.00;99.90;;;;;;5031865;28;20075;-70
2024/01/24 07:51:18;;;;;;;51.17;11.30;;;10.00;99.90;;;;;;5028755;28;20034;-68
2024/01/24 07:53:44;;;;;;;57.30;13.32;;;10.00;99.90;;;;;;5031633;28;20022;-69
2024/01/24 07:56:11;;;;;;;60.13;12.35;;;9.90;99.90;;;;;;5031223;28;20029;-68
2024/01/24 07:58:39;;;;;;;58.05;11.50;;;9.90;99.90;;;;;;5031816;28;20022;-69
2024/01/24 08:01:05;;;;;;;51.38;11.52;;;9.90;99.90;;;;;;5034052;28;20033;-68
2024/01/24 08:03:31;;;;;;;63.47;11.90;;;9.90;99.90;;;;;;5034000;28;20021;-68
2024/01/24 08:05:56;;;;;;;58.90;11.05;;;9.90;99.90;;;;;;5033939;28;20509;-69
2024/01/24 08:08:22;;;;;;;49.75;11.88;;;9.90;99.90;;;;;;5034426;28;20033;-69
2024/01/24 08:10:47;;;;;;;53.17;11.38;;;9.80;99.90;;;;;;5035006;28;20036;-68
2024/01/24 08:13:13;;;;;;;50.95;11.07;;;9.80;99.90;;;;;;5034589;28;20030;-69
2024/01/24 08:15:39;;;;;;;57.20;11.38;;;9.80;99.90;;;;;;5034493;28;20029;-68
2024/01/24 08:18:04;;;;;;;56.65;12.68;;;9.80;99.90;;;;;;5034403;28;20117;-68
2024/01/24 08:20:30;;;;;;;49.38;10.60;;;9.80;99.90;;;;;;5032218;28;20041;-68
2024/01/24 08:22:55;;;;;;;52.40;11.13;;;9.80;99.90;;;;;;5035648;28;20026;-68
2024/01/24 08:25:22;;;;;;;42.10;9.55;;;9.80;99.90;;;;;;5035349;28;20030;-68
2024/01/24 08:27:48;;;;;;;51.80;9.70;;;9.80;99.90;;;;;;5035077;28;20033;-68
2024/01/24 08:30:14;;;;;;;51.03;11.23;;;9.90;99.90;;;;;;5034995;28;20040;-69
2024/01/24 08:32:41;;;;;;;54.05;10.65;;;9.90;99.90;;;;;;5035252;28;20032;-68
2024/01/24 08:35:08;;;;;;;51.58;11.20;;;10.00;99.90;;;;;;5034906;28;20049;-69
2024/01/24 08:37:34;;;;;;;51.05;16.30;;;10.00;99.90;;;;;;5034423;28;20055;-69
2024/01/24 08:39:59;;;;;;;49.95;12.63;;;10.00;99.90;;;;;;5033289;28;20390;-68
2024/01/24 08:42:25;;;;;;;54.80;10.75;;;10.00;99.90;;;;;;5035228;28;20068;-69
2024/01/24 08:44:51;;;;;;;62.40;11.93;;;10.10;99.90;;;;;;5035258;28;20029;-69
2024/01/24 08:47:16;;;;;;;47.45;10.98;;;10.10;99.90;;;;;;5034763;28;20436;-68
2024/01/24 08:49:42;;;;;;;46.45;10.38;;;10.20;99.90;;;;;;5034706;28;20037;-68
2024/01/24 08:52:07;;;;;;;50.00;11.02;;;10.20;99.90;;;;;;5034810;28;20109;-68
2024/01/24 08:54:33;;;;;;;54.63;10.50;;;10.20;99.90;;;;;;5034675;28;20531;-69
2024/01/24 08:56:58;;;;;;;52.97;11.70;;;10.20;99.90;;;;;;5034163;28;20025;-68
2024/01/24 08:59:24;;;;;;;62.17;11.82;;;10.20;99.90;;;;;;5034277;28;20029;-68
2024/01/24 09:01:50;;;;;;;60.83;12.07;;;10.20;99.90;;;;;;5034640;28;20096;-68
2024/01/24 09:04:15;;;;;;;46.35;11.23;;;10.20;99.90;;;;;;5034558;28;20048;-68
2024/01/24 09:06:42;;;;;;;55.92;12.23;;;10.30;99.90;;;;;;5034982;28;20442;-68
2024/01/24 09:09:13;;;;;;;57.03;11.75;;;10.20;99.90;;;;;;5034580;28;20018;-68
2024/01/24 09:11:39;;;;;;;52.22;9.90;;;10.20;99.90;;;;;;5034664;28;20040;-68
2024/01/24 09:14:05;;;;;;;52.20;10.70;;;10.30;99.90;;;;;;5034641;28;20076;-68
2024/01/24 09:16:30;;;;;;;58.10;11.13;;;10.40;99.90;;;;;;5034387;28;20480;-68
2024/01/24 09:18:56;;;;;;;50.53;10.82;;;10.40;99.90;;;;;;5034296;28;20376;-68
2024/01/24 09:21:21;;;;;;;45.80;10.57;;;10.40;99.90;;;;;;5034371;28;20451;-68
2024/01/24 09:23:49;;;;;;;54.15;10.95;;;10.40;99.90;;;;;;5034008;28;20408;-68
2024/01/24 09:26:15;;;;;;;55.83;11.07;;;10.50;99.90;;;;;;5034217;28;20449;-68
2024/01/24 09:28:41;;;;;;;44.97;9.77;;;10.50;99.90;;;;;;5033360;28;20101;-68
2024/01/24 09:31:07;;;;;;;52.38;10.07;;;10.60;99.90;;;;;;5033521;28;20100;-68
2024/01/24 09:33:32;;;;;;;52.13;10.20;;;10.60;99.90;;;;;;5033457;28;20028;-68
2024/01/24 09:35:58;;;;;;;46.47;10.23;;;10.60;99.90;;;;;;5033709;28;20071;-68
2024/01/24 09:38:23;;;;;;;51.72;9.90;;;10.70;99.90;;;;;;5033416;28;20065;-68
2024/01/24 09:40:50;;;;;;;57.50;10.77;;;10.70;99.90;;;;;;5033538;28;20432;-69
2024/01/24 09:43:17;;;;;;;46.08;9.82;;;10.80;99.90;;;;;;5033440;28;20036;-68
2024/01/24 09:45:44;;;;;;;47.00;10.32;;;10.90;99.90;;;;;;5032998;28;20418;-68
2024/01/24 09:48:11;;;;;;;54.45;10.57;;;11.00;99.90;;;;;;5030605;28;20425;-68
2024/01/24 09:50:37;;;;;;;48.47;9.73;;;11.10;99.90;;;;;;5032037;28;20022;-68
2024/01/24 09:53:07;;;;;;;59.03;10.40;;;11.30;99.90;;;;;;5033079;28;20113;-68
2024/01/24 09:55:33;;;;;;;45.65;9.30;;;11.40;99.90;;;;;;5029775;28;20542;-68
2024/01/24 09:58:00;;;;;;;53.88;9.50;;;11.60;99.90;;;;;;5032229;28;20029;-68
2024/01/24 10:00:25;;;;;;;44.95;9.93;;;11.80;99.90;;;;;;5032243;28;20029;-68
2024/01/24 10:02:51;;;;;;;45.80;9.82;;;12.10;99.90;;;;;;5032676;28;20021;-68
2024/01/24 10:05:18;;;;;;;38.88;8.75;;;12.30;99.90;;;;;;5032686;28;20026;-68
2024/01/24 10:07:44;;;;;;;41.33;8.23;;;12.60;99.90;;;;;;5032345;28;20495;-68
2024/01/24 10:10:15;;;;;;;40.28;8.20;;;12.80;99.90;;;;;;5032603;28;20096;-68
2024/01/24 10:12:44;;;;;;;40.60;7.72;;;12.90;99.90;;;;;;5032274;28;20017;-67
2024/01/24 10:15:11;;;;;;;46.72;8.52;;;13.00;99.90;;;;;;5032092;28;20025;-68
2024/01/24 10:17:44;;;;;;;43.65;8.95;;;13.10;99.90;;;;;;5030713;28;20440;-68
2024/01/24 10:20:11;;;;;;;38.47;8.07;;;13.10;99.90;;;;;;5032398;28;20021;-68
2024/01/24 10:22:38;;;;;;;38.67;8.45;;;12.90;99.90;;;;;;5031866;28;20041;-68
2024/01/24 10:25:05;;;;;;;43.47;8.85;;;12.60;99.90;;;;;;5033078;28;20057;-68
2024/01/24 10:27:32;;;;;;;39.88;8.00;;;12.40;99.90;;;;;;5033163;28;20492;-68
2024/01/24 10:29:59;;;;;;;41.28;9.30;;;12.30;99.90;;;;;;5033040;28;20017;-69
2024/01/24 10:32:24;;;;;;;43.42;8.80;;;12.20;99.90;;;;;;5033360;28;20540;-69
2024/01/24 10:34:50;;;;;;;40.15;9.30;;;12.30;99.90;;;;;;5032901;28;20053;-69
2024/01/24 10:37:18;;;;;;;44.47;8.52;;;12.40;99.90;;;;;;5032659;28;20036;-68
2024/01/24 10:39:44;;;;;;;38.15;7.88;;;12.60;99.90;;;;;;5032761;28;20037;-68
2024/01/24 10:42:12;;;;;;;42.00;8.25;;;12.80;99.90;;;;;;5032733;28;20119;-68
2024/01/24 10:44:42;;;;;;;34.50;8.45;;;13.00;99.90;;;;;;5032986;28;20025;-69
2024/01/24 10:47:09;;;;;;;36.38;7.25;;;13.20;99.90;;;;;;5030862;28;20021;-68
2024/01/24 10:49:36;;;;;;;46.75;7.93;;;13.40;99.90;;;;;;5032885;28;20056;-68
2024/01/24 10:52:02;;;;;;;36.35;6.63;;;13.70;99.90;;;;;;5032775;28;20120;-69
2024/01/24 10:54:30;;;;;;;45.83;8.45;;;13.70;99.90;;;;;;5032732;28;20568;-68
2024/01/24 10:56:59;;;;;;;36.67;7.35;;;13.80;99.90;;;;;;5031641;28;20037;-69
2024/01/24 10:59:27;;;;;;;31.90;7.18;;;13.80;99.90;;;;;;5032016;28;20049;-68
2024/01/24 11:01:52;;;;;;;38.13;6.22;;;13.70;99.90;;;;;;5032116;28;20042;-69
2024/01/24 11:04:21;;;;;;;80.43;36.67;;;13.90;99.90;;;;;;5032534;28;20032;-69
2024/01/24 11:06:59;;;;;;;28.98;6.47;;;14.10;99.90;;;;;;5032756;28;20449;-69
2024/01/24 11:09:34;;;;;;;18.50;4.05;;;14.00;99.90;;;;;;5032747;28;20395;-69
2024/01/24 11:12:00;;;;;;;32.90;5.65;;;14.00;99.90;;;;;;5032728;28;20025;-69
2024/01/24 11:14:33;;;;;;;30.42;6.20;;;13.90;99.90;;;;;;5032631;28;20112;-69
2024/01/24 11:17:00;;;;;;;29.50;5.35;;;13.90;99.90;;;;;;5032617;28;20022;-68
2024/01/24 11:19:28;;;;;;;22.30;3.33;;;13.90;99.90;;;;;;5032225;28;20033;-69
2024/01/24 11:21:56;;;;;;;30.73;5.30;;;14.00;99.90;;;;;;5032311;28;20355;-69
2024/01/24 11:24:40;;;;;;;26.95;5.90;;;14.00;99.90;;;;;;5031546;28;20025;-69
2024/01/24 11:27:36;;;;;;;29.50;4.45;;;13.80;99.90;;;;;;5032458;28;20068;-69
2024/01/24 11:30:11;;;;;;;34.15;5.32;;;13.80;99.90;;;;;;5031987;28;20096;-69
2024/01/24 11:32:50;;;;;;;39.63;7.30;;;13.80;99.90;;;;;;5032260;28;20492;-69
2024/01/24 11:35:38;;;;;;;32.92;5.22;;;13.90;99.90;;;;;;5034972;28;20132;-68
2024/01/24 11:38:03;;;;;;;38.13;6.35;;;13.90;99.90;;;;;;5036499;28;20465;-69
2024/01/24 11:40:38;;;;;;;30.73;5.93;;;13.90;99.90;;;;;;5036034;28;20120;-68
2024/01/24 11:43:04;;;;;;;33.65;6.45;;;14.00;99.90;;;;;;5036377;28;20082;-69
2024/01/24 11:45:30;;;;;;;39.58;5.60;;;13.70;99.90;;;;;;5035992;28;20112;-69
2024/01/24 11:47:57;;;;;;;32.92;6.57;;;13.40;99.90;;;;;;5035911;28;20029;-69
2024/01/24 11:50:23;;;;;;;30.85;5.32;;;13.10;99.90;;;;;;5035955;28;20029;-69
2024/01/24 11:52:48;;;;;;;36.17;6.68;;;12.90;99.90;;;;;;5035090;28;20036;-69
2024/01/24 11:55:14;;;;;;;39.45;6.05;;;12.70;99.90;;;;;;5036140;28;20033;-69
2024/01/24 11:57:40;;;;;;;37.55;9.68;;;12.70;99.90;;;;;;5035996;28;20033;-69
2024/01/24 12:00:09;;;;;;;37.38;7.53;;;12.60;99.90;;;;;;5035463;28;20034;-69
2024/01/24 12:02:35;;;;;;;36.60;7.22;;;12.60;99.90;;;;;;5035700;28;20029;-69
2024/01/24 12:05:01;;;;;;;38.00;7.25;;;12.30;99.90;;;;;;5035890;28;20034;-69
2024/01/24 12:07:27;;;;;;;34.65;5.72;;;12.30;99.90;;;;;;5035905;28;20036;-68
2024/01/24 12:09:53;;;;;;;35.47;6.43;;;12.20;99.90;;;;;;5035953;28;20497;-68
2024/01/24 12:12:19;;;;;;;30.52;6.63;;;12.20;99.90;;;;;;5034688;28;20432;-69
2024/01/24 12:14:45;;;;;;;33.95;7.30;;;12.10;99.90;;;;;;5035402;28;20079;-68
2024/01/24 12:17:11;;;;;;;30.10;5.90;;;12.20;99.90;;;;;;5035197;28;20025;-68
2024/01/24 12:19:37;;;;;;;33.00;6.63;;;12.20;99.90;;;;;;5034837;28;20029;-68
2024/01/24 12:22:06;;;;;;;38.95;7.07;;;12.10;99.90;;;;;;5034648;28;20103;-69
2024/01/24 12:24:31;;;;;;;45.67;13.32;;;12.00;99.90;;;;;;5035087;28;20037;-68
2024/01/24 12:26:57;;;;;;;42.00;7.60;;;11.90;99.90;;;;;;5034703;28;20053;-69
2024/01/24 12:29:23;;;;;;;35.40;7.35;;;11.90;99.90;;;;;;5033617;28;20025;-68
2024/01/24 12:31:48;;;;;;;38.58;6.72;;;11.80;99.90;;;;;;5034714;28;20528;-68